createdAt,value
2023-11-18T00:00:22.995Z,6.25
2023-11-18T00:03:25.954Z,4.22
2023-11-18T00:06:29.317Z,5.60
2023-11-18T00:09:31.479Z,5.22
2023-11-18T00:12:37.101Z,5.25
2023-11-18T00:15:39.169Z,5.03
2023-11-18T00:18:41.329Z,4.03
2023-11-18T00:21:43.951Z,5.30
2023-11-18T00:24:46.160Z,4.65
2023-11-18T00:27:48.178Z,4.47
2023-11-18T00:30:51.483Z,5.13
2023-11-18T00:33:53.738Z,5.28
2023-11-18T00:36:57.462Z,4.80
2023-11-18T00:39:59.852Z,4.78
2023-11-18T00:43:01.872Z,4.60
2023-11-18T00:46:05.200Z,4.10
2023-11-18T00:49:07.339Z,4.57
2023-11-18T00:52:09.664Z,4.90
2023-11-18T00:55:12.465Z,5.72
2023-11-18T00:58:14.778Z,4.47
2023-11-18T01:01:19.862Z,3.88
2023-11-18T01:04:22.109Z,6.70
2023-11-18T01:07:24.175Z,4.50
2023-11-18T01:10:26.356Z,3.88
2023-11-18T01:13:28.633Z,4.70
2023-11-18T01:16:31.038Z,4.63
2023-11-18T01:19:34.911Z,3.95
2023-11-18T01:22:37.174Z,4.05
2023-11-18T01:25:39.353Z,4.47
2023-11-18T01:28:44.551Z,4.90
2023-11-18T01:31:52.204Z,4.70
2023-11-18T01:34:54.936Z,4.93
2023-11-18T01:37:57.064Z,3.75
2023-11-18T01:40:59.247Z,4.75
2023-11-18T01:44:01.294Z,5.00
2023-11-18T01:47:07.227Z,4.57
2023-11-18T01:50:12.704Z,3.53
2023-11-18T01:53:18.416Z,4.82
2023-11-18T01:56:22.421Z,5.03
2023-11-18T01:59:27.135Z,4.47
2023-11-18T02:02:29.422Z,4.60
2023-11-18T02:05:31.707Z,3.40
2023-11-18T02:08:36.519Z,4.63
2023-11-18T02:11:49.122Z,4.00
2023-11-18T02:14:52.411Z,3.35
2023-11-18T02:17:55.243Z,4.20
2023-11-18T02:21:00.797Z,3.55
2023-11-18T02:24:02.987Z,4.03
2023-11-18T02:27:12.991Z,3.88
2023-11-18T02:30:18.871Z,4.50
2023-11-18T02:33:31.985Z,4.13
2023-11-18T02:36:40.687Z,4.88
2023-11-18T02:39:46.607Z,4.85
2023-11-18T02:42:51.571Z,4.10
2023-11-18T02:45:56.078Z,4.65
2023-11-18T02:48:58.325Z,3.95
2023-11-18T02:52:00.434Z,3.67
2023-11-18T02:55:02.373Z,3.70
2023-11-18T02:58:06.932Z,4.18
2023-11-18T03:01:09.701Z,2.95
2023-11-18T03:04:15.274Z,3.85
2023-11-18T03:07:17.679Z,3.53
2023-11-18T03:10:23.683Z,3.55
2023-11-18T03:13:25.803Z,3.80
2023-11-18T03:16:28.583Z,3.30
2023-11-18T03:19:30.779Z,3.03
2023-11-18T03:22:32.960Z,3.72
2023-11-18T03:25:35.199Z,3.97
2023-11-18T03:28:41.467Z,4.18
2023-11-18T03:31:46.052Z,4.55
2023-11-18T03:34:48.406Z,4.90
2023-11-18T03:37:50.735Z,5.53
2023-11-18T03:40:53.575Z,4.18
2023-11-18T03:43:55.687Z,5.28
2023-11-18T03:46:57.886Z,3.67
2023-11-18T03:50:00.137Z,4.05
2023-11-18T03:53:05.360Z,3.83
2023-11-18T03:56:07.910Z,4.28
2023-11-18T03:59:10.716Z,3.47
2023-11-18T04:02:12.950Z,3.70
2023-11-18T04:05:16.414Z,4.10
2023-11-18T04:08:18.706Z,4.78
2023-11-18T04:11:21.034Z,4.35
2023-11-18T04:14:23.663Z,3.85
2023-11-18T04:17:29.363Z,2.85
2023-11-18T04:20:31.620Z,2.67
2023-11-18T04:23:34.854Z,3.35
2023-11-18T04:26:37.014Z,3.50
2023-11-18T04:29:39.519Z,3.45
2023-11-18T04:32:44.444Z,4.03
2023-11-18T04:35:49.702Z,3.42
2023-11-18T04:38:51.702Z,4.22
2023-11-18T04:41:53.800Z,3.63
2023-11-18T04:44:56.042Z,3.38
2023-11-18T04:47:58.277Z,3.88
2023-11-18T04:51:00.984Z,2.88
2023-11-18T04:54:04.623Z,3.92
2023-11-18T04:57:10.158Z,3.83
2023-11-18T05:00:13.041Z,4.28
2023-11-18T05:03:15.198Z,3.03
2023-11-18T05:06:17.431Z,2.72
2023-11-18T05:09:19.852Z,2.45
2023-11-18T05:12:22.057Z,4.30
2023-11-18T05:15:27.247Z,3.25
2023-11-18T05:18:34.825Z,3.00
2023-11-18T05:21:37.378Z,3.55
2023-11-18T05:24:41.162Z,4.18
2023-11-18T05:27:45.274Z,3.83
2023-11-18T05:30:47.954Z,3.58
2023-11-18T05:33:53.294Z,4.90
2023-11-18T05:36:55.873Z,4.20
2023-11-18T05:40:07.047Z,3.88
2023-11-18T05:43:17.363Z,2.80
2023-11-18T05:46:24.159Z,3.55
2023-11-18T05:49:26.782Z,4.25
2023-11-18T05:52:28.720Z,3.67
2023-11-18T05:55:30.693Z,3.40
2023-11-18T05:58:34.050Z,4.15
2023-11-18T06:01:36.423Z,3.25
2023-11-18T06:04:38.517Z,3.65
2023-11-18T06:07:44.688Z,3.90
2023-11-18T06:10:46.834Z,4.15
2023-11-18T06:13:51.033Z,3.25
2023-11-18T06:16:53.387Z,7.40
2023-11-18T06:19:55.537Z,4.10
2023-11-18T06:22:58.427Z,4.78
2023-11-18T06:26:01.544Z,3.80
2023-11-18T06:29:05.415Z,3.42
2023-11-18T06:32:09.323Z,4.03
2023-11-18T06:35:14.595Z,3.70
2023-11-18T06:38:19.999Z,3.38
2023-11-18T06:41:34.950Z,2.53
2023-11-18T06:44:37.313Z,3.67
2023-11-18T06:47:39.785Z,3.25
2023-11-18T06:50:45.838Z,3.08
2023-11-18T06:53:48.276Z,4.72
2023-11-18T06:56:52.808Z,4.32
2023-11-18T06:59:54.975Z,3.80
2023-11-18T07:02:57.391Z,3.17
2023-11-18T07:05:59.561Z,2.13
2023-11-18T07:09:02.061Z,1.85
2023-11-18T07:12:08.627Z,2.33
2023-11-18T07:15:12.013Z,2.13
2023-11-18T07:18:14.109Z,2.38
2023-11-18T07:21:16.249Z,2.20
2023-11-18T07:24:18.624Z,3.13
2023-11-18T07:27:21.471Z,2.40
2023-11-18T07:30:26.636Z,2.50
2023-11-18T07:33:28.737Z,4.00
2023-11-18T07:36:30.818Z,4.25
2023-11-18T07:39:45.125Z,3.47
2023-11-18T07:42:47.501Z,3.70
2023-11-18T07:45:54.709Z,4.40
2023-11-18T07:48:58.081Z,4.60
2023-11-18T07:52:00.342Z,3.60
2023-11-18T07:55:02.489Z,4.03
2023-11-18T07:58:24.661Z,3.88
2023-11-18T08:01:28.561Z,4.57
2023-11-18T08:04:31.080Z,4.63
2023-11-18T08:07:33.531Z,5.13
2023-11-18T08:10:39.156Z,4.40
2023-11-18T08:13:41.767Z,5.50
2023-11-18T08:16:44.336Z,5.00
2023-11-18T08:19:47.837Z,4.43
2023-11-18T08:22:50.114Z,4.72
2023-11-18T08:25:52.154Z,4.97
2023-11-18T08:28:54.740Z,5.97
2023-11-18T08:31:57.405Z,4.13
2023-11-18T08:34:59.587Z,4.13
2023-11-18T08:38:03.059Z,4.63
2023-11-18T08:41:06.970Z,4.47
2023-11-18T08:44:18.518Z,4.55
2023-11-18T08:47:26.844Z,3.80
2023-11-18T08:50:30.125Z,4.47
2023-11-18T08:53:37.312Z,4.13
2023-11-18T08:56:43.252Z,4.30
2023-11-18T08:59:45.859Z,5.00
2023-11-18T09:02:54.054Z,5.25
2023-11-18T09:05:58.957Z,4.78
2023-11-18T09:09:07.302Z,4.45
2023-11-18T09:12:09.814Z,4.63
2023-11-18T09:15:19.218Z,4.50
2023-11-18T09:18:23.340Z,5.40
2023-11-18T09:21:31.209Z,4.22
2023-11-18T09:24:35.562Z,7.50
2023-11-18T09:27:39.646Z,11.20
2023-11-18T09:30:50.960Z,10.45
2023-11-18T09:33:59.062Z,7.22
2023-11-18T09:37:01.400Z,6.43
2023-11-18T09:40:12.759Z,6.63
2023-11-18T09:43:17.120Z,6.80
2023-11-18T09:46:25.881Z,6.32
2023-11-18T09:49:35.243Z,5.18
2023-11-18T09:52:53.360Z,5.78
2023-11-18T09:56:04.950Z,5.75
2023-11-18T09:59:17.204Z,6.68
2023-11-18T10:02:20.447Z,5.25
2023-11-18T10:05:24.382Z,4.93
2023-11-18T10:08:27.564Z,6.10
2023-11-18T10:11:30.642Z,6.00
2023-11-18T10:14:36.777Z,5.63
2023-11-18T10:17:56.432Z,5.35
2023-11-18T10:21:00.963Z,6.28
2023-11-18T10:24:03.354Z,4.50
2023-11-18T10:27:10.022Z,6.18
2023-11-18T10:30:20.663Z,5.43
2023-11-18T10:33:23.213Z,5.65
2023-11-18T10:36:25.714Z,5.72
2023-11-18T10:39:32.422Z,5.35
2023-11-18T10:42:35.019Z,5.55
2023-11-18T10:45:42.311Z,5.75
2023-11-18T10:48:49.127Z,5.55
2023-11-18T10:51:54.410Z,6.25
2023-11-18T10:54:57.311Z,5.60
2023-11-18T10:58:02.026Z,4.78
2023-11-18T11:01:06.655Z,4.28
2023-11-18T11:04:11.387Z,5.07
2023-11-18T11:07:15.607Z,4.72
2023-11-18T11:10:18.384Z,3.88
2023-11-18T11:13:20.967Z,3.78
2023-11-18T11:16:28.939Z,4.78
2023-11-18T11:19:46.142Z,3.75
2023-11-18T11:23:11.654Z,3.70
2023-11-18T11:26:29.761Z,3.95
2023-11-18T11:29:58.525Z,3.63
2023-11-18T11:33:29.033Z,3.25
2023-11-18T11:36:39.594Z,3.22
2023-11-18T11:39:47.929Z,2.80
2023-11-18T11:42:58.247Z,3.47
2023-11-18T11:46:00.547Z,3.45
2023-11-18T11:49:12.818Z,3.38
2023-11-18T11:52:29.268Z,3.22
2023-11-18T11:55:39.923Z,3.70
2023-11-18T11:58:46.204Z,4.15
2023-11-18T12:01:53.938Z,4.30
2023-11-18T12:05:00.189Z,4.15
2023-11-18T12:08:02.674Z,3.55
2023-11-18T12:11:10.938Z,4.47
2023-11-18T12:14:25.259Z,4.25
2023-11-18T12:17:30.206Z,4.10
2023-11-18T12:20:43.880Z,3.63
2023-11-18T12:24:20.062Z,4.32
2023-11-18T12:27:44.708Z,4.18
2023-11-18T12:30:53.463Z,4.47
2023-11-18T12:33:55.573Z,4.85
2023-11-18T12:37:13.801Z,4.78
2023-11-18T12:40:25.767Z,5.10
2023-11-18T12:44:20.196Z,4.32
2023-11-18T12:47:29.901Z,4.85
2023-11-18T12:50:36.030Z,4.15
2023-11-18T12:53:38.410Z,4.57
2023-11-18T12:56:40.737Z,5.78
2023-11-18T12:59:43.768Z,4.55
2023-11-18T13:02:46.452Z,5.10
2023-11-18T13:05:49.904Z,5.20
2023-11-18T13:08:52.190Z,6.15
2023-11-18T13:12:02.222Z,5.18
2023-11-18T13:15:09.810Z,6.38
2023-11-18T13:18:13.590Z,5.35
2023-11-18T13:21:17.781Z,6.60
2023-11-18T13:24:20.490Z,5.22
2023-11-18T13:27:24.325Z,6.32
2023-11-18T13:30:26.494Z,5.93
2023-11-18T13:33:29.157Z,7.75
2023-11-18T13:36:33.109Z,6.47
2023-11-18T13:39:36.621Z,7.45
2023-11-18T13:42:40.418Z,7.97
2023-11-18T13:45:44.195Z,9.18
2023-11-18T13:48:53.006Z,8.32
2023-11-18T13:51:57.088Z,8.23
2023-11-18T13:55:00.990Z,7.13
2023-11-18T13:58:06.342Z,6.93
2023-11-18T14:01:09.676Z,7.22
2023-11-18T14:04:11.958Z,6.85
2023-11-18T14:07:18.471Z,6.15
2023-11-18T14:10:20.728Z,6.28
2023-11-18T14:13:23.504Z,7.15
2023-11-18T14:16:27.545Z,6.30
2023-11-18T14:19:32.790Z,7.47
2023-11-18T14:22:34.844Z,6.45
2023-11-18T14:25:37.868Z,6.03
2023-11-18T14:28:40.195Z,7.18
2023-11-18T14:31:42.278Z,6.30
2023-11-18T14:34:44.571Z,6.32
2023-11-18T14:37:46.765Z,7.53
2023-11-18T14:40:49.617Z,6.57
2023-11-18T14:43:53.186Z,7.43
2023-11-18T14:46:56.362Z,8.00
2023-11-18T14:49:58.556Z,6.07
2023-11-18T14:53:01.326Z,7.32
2023-11-18T14:56:06.710Z,6.32
2023-11-18T14:59:09.365Z,6.35
2023-11-18T15:02:12.196Z,6.55
2023-11-18T15:05:19.459Z,7.53
2023-11-18T15:08:21.789Z,7.53
2023-11-18T15:11:24.895Z,7.80
2023-11-18T15:14:27.041Z,5.55
2023-11-18T15:17:41.282Z,6.78
2023-11-18T15:20:48.944Z,7.55
2023-11-18T15:23:51.534Z,9.05
2023-11-18T15:26:53.656Z,7.55
2023-11-18T15:29:55.686Z,7.22
2023-11-18T15:32:57.865Z,7.70
2023-11-18T15:36:02.438Z,7.55
2023-11-18T15:39:06.062Z,7.32
2023-11-18T15:42:08.178Z,7.32
2023-11-18T15:45:15.477Z,7.18
2023-11-18T15:48:18.134Z,8.43
2023-11-18T15:51:22.551Z,7.03
2023-11-18T15:54:24.713Z,7.97
2023-11-18T15:57:26.809Z,7.65
2023-11-18T16:00:29.721Z,7.80
2023-11-18T16:03:31.969Z,7.15
2023-11-18T16:06:34.323Z,8.40
2023-11-18T16:09:37.111Z,6.65
2023-11-18T16:12:39.322Z,6.25
2023-11-18T16:15:42.566Z,8.95
2023-11-18T16:18:44.635Z,7.68
2023-11-18T16:21:48.111Z,7.85
2023-11-18T16:24:50.172Z,9.27
2023-11-18T16:27:53.588Z,8.18
2023-11-18T16:30:57.770Z,8.35
2023-11-18T16:33:59.980Z,7.82
2023-11-18T16:37:03.193Z,8.85
2023-11-18T16:40:06.058Z,6.95
2023-11-18T16:43:08.265Z,8.38
2023-11-18T16:46:10.425Z,7.95
2023-11-18T16:49:17.465Z,9.27
2023-11-18T16:52:19.502Z,8.05
2023-11-18T16:55:25.123Z,8.07
2023-11-18T16:58:28.656Z,7.97
2023-11-18T17:01:30.672Z,9.13
2023-11-18T17:04:34.813Z,8.55
2023-11-18T17:07:37.110Z,9.93
2023-11-18T17:10:39.225Z,9.10
2023-11-18T17:13:42.223Z,9.77
2023-11-18T17:16:44.378Z,9.10
2023-11-18T17:19:46.527Z,10.38
2023-11-18T17:22:48.560Z,11.95
2023-11-18T17:25:51.193Z,9.93
2023-11-18T17:28:53.568Z,10.30
2023-11-18T17:31:57.643Z,15.40
2023-11-18T17:35:00.757Z,12.57
2023-11-18T17:38:03.084Z,13.00
2023-11-18T17:41:05.519Z,12.48
2023-11-18T17:44:07.601Z,13.10
2023-11-18T17:47:10.997Z,11.43
2023-11-18T17:50:18.734Z,11.15
2023-11-18T17:53:20.905Z,12.05
2023-11-18T17:56:23.111Z,10.27
2023-11-18T17:59:25.453Z,12.43
2023-11-18T18:02:28.044Z,9.35
2023-11-18T18:05:30.291Z,10.88
2023-11-18T18:08:35.597Z,9.63
2023-11-18T18:11:37.695Z,9.60
2023-11-18T18:14:39.954Z,10.15
2023-11-18T18:17:42.147Z,11.25
2023-11-18T18:20:49.361Z,12.65
2023-11-18T18:23:51.661Z,10.68
2023-11-18T18:26:54.364Z,10.40
2023-11-18T18:29:56.874Z,10.68
2023-11-18T18:32:59.044Z,9.57
2023-11-18T18:36:01.162Z,9.02
2023-11-18T18:39:03.285Z,10.45
2023-11-18T18:42:06.490Z,9.70
2023-11-18T18:45:09.416Z,8.75
2023-11-18T18:48:11.706Z,10.30
2023-11-18T18:51:15.805Z,12.50
2023-11-18T18:54:18.514Z,9.15
2023-11-18T18:57:20.679Z,11.05
2023-11-18T19:00:22.889Z,10.07
2023-11-18T19:03:25.012Z,10.95
2023-11-18T19:06:27.222Z,10.25
2023-11-18T19:09:29.669Z,9.70
2023-11-18T19:12:31.757Z,8.98
2023-11-18T19:15:34.102Z,9.60
2023-11-18T19:18:36.316Z,9.10
2023-11-18T19:21:38.439Z,9.90
2023-11-18T19:24:40.623Z,9.57
2023-11-18T19:27:44.522Z,9.63
2023-11-18T19:30:47.821Z,9.65
2023-11-18T19:33:50.095Z,9.23
2023-11-18T19:36:52.906Z,9.07
2023-11-18T19:39:54.981Z,11.07
2023-11-18T19:42:57.437Z,10.30
2023-11-18T19:45:59.617Z,9.27
2023-11-18T19:49:02.011Z,9.00
2023-11-18T19:52:05.480Z,8.32
2023-11-18T19:55:08.086Z,8.60
2023-11-18T19:58:10.212Z,10.90
2023-11-18T20:01:19.565Z,9.15
2023-11-18T20:04:23.395Z,8.07
2023-11-18T20:07:25.986Z,9.68
2023-11-18T20:10:29.729Z,6.78
2023-11-18T20:13:32.114Z,8.10
2023-11-18T20:16:34.649Z,9.13
2023-11-18T20:19:39.988Z,7.25
2023-11-18T20:22:42.105Z,8.10
2023-11-18T20:25:45.200Z,7.93
2023-11-18T20:28:47.285Z,7.13
2023-11-18T20:31:49.751Z,9.38
2023-11-18T20:34:54.893Z,8.13
2023-11-18T20:37:57.257Z,6.65
2023-11-18T20:40:59.429Z,8.88
2023-11-18T20:44:02.796Z,6.97
2023-11-18T20:47:04.935Z,6.90
2023-11-18T20:50:07.841Z,5.85
2023-11-18T20:53:10.648Z,7.70
2023-11-18T20:56:13.598Z,6.05
2023-11-18T20:59:19.466Z,8.75
2023-11-18T21:02:23.494Z,7.80
2023-11-18T21:05:25.735Z,7.15
2023-11-18T21:08:28.035Z,7.40
2023-11-18T21:11:30.362Z,7.35
2023-11-18T21:14:32.579Z,5.40
2023-11-18T21:17:35.671Z,6.22
2023-11-18T21:20:37.860Z,6.28
2023-11-18T21:23:40.637Z,7.00
2023-11-18T21:26:42.693Z,6.03
2023-11-18T21:29:44.879Z,7.30
2023-11-18T21:32:47.439Z,6.28
2023-11-18T21:35:49.776Z,7.57
2023-11-18T21:38:54.165Z,6.57
2023-11-18T21:41:57.483Z,4.97
2023-11-18T21:44:59.696Z,7.20
2023-11-18T21:48:03.182Z,6.95
2023-11-18T21:51:06.087Z,7.57
2023-11-18T21:54:09.219Z,6.60
2023-11-18T21:57:12.024Z,6.63
2023-11-18T22:00:17.987Z,7.18
2023-11-18T22:03:21.405Z,6.00
2023-11-18T22:06:23.823Z,6.60
2023-11-18T22:09:25.848Z,7.43
2023-11-18T22:12:27.969Z,6.65
2023-11-18T22:15:30.132Z,6.32
2023-11-18T22:18:32.348Z,5.68
2023-11-18T22:21:34.491Z,6.97
2023-11-18T22:24:36.917Z,6.63
2023-11-18T22:27:41.681Z,8.07
2023-11-18T22:30:43.938Z,7.40
2023-11-18T22:33:46.056Z,6.82
2023-11-18T22:36:48.245Z,7.15
2023-11-18T22:39:50.428Z,7.10
2023-11-18T22:42:53.218Z,8.38
2023-11-18T22:45:55.449Z,7.85
2023-11-18T22:48:57.458Z,8.20
2023-11-18T22:51:59.953Z,7.30
2023-11-18T22:55:14.840Z,6.05
2023-11-18T22:58:18.234Z,6.40
2023-11-18T23:01:24.306Z,6.78
2023-11-18T23:04:28.384Z,5.75
2023-11-18T23:07:30.517Z,5.22
2023-11-18T23:10:33.200Z,5.90
2023-11-18T23:13:36.907Z,6.10
2023-11-18T23:16:39.066Z,7.07
2023-11-18T23:19:47.843Z,6.70
2023-11-18T23:22:52.563Z,4.88
2023-11-18T23:25:57.379Z,5.55
2023-11-18T23:28:59.724Z,6.55
2023-11-18T23:32:01.906Z,6.00
2023-11-18T23:35:07.177Z,5.70
2023-11-18T23:38:09.330Z,7.07
2023-11-18T23:41:11.376Z,7.35
2023-11-18T23:44:15.047Z,6.22
2023-11-18T23:47:17.143Z,6.68
2023-11-18T23:50:20.152Z,5.75
2023-11-18T23:53:22.283Z,5.88
2023-11-18T23:56:24.422Z,6.13
2023-11-18T23:59:27.275Z,5.10
